Time;durP1;ratioP1;P1;durP2;ratioP2;P2;SDS_P1;SDS_P2;PMS_P1;PMS_P2;Temp;Humidity;BMP_temperature;BMP_pressure;BME280_temperature;BME280_humidity;BME280_pressure;Samples;Min_cycle;Max_cycle;Signal;HPM_P1;HPM_P2
2022/10/08 01:41:09;;;;;;;2.67;1.02;;;;;;;18.52;39.92;99386.84;4155054;23;20049;-96
2022/10/08 02:04:36;;;;;;;2.15;1.05;;;;;;;18.77;39.74;99398.81;5015549;23;20053;-96
2022/10/08 02:07:20;;;;;;;3.30;1.10;;;;;;;18.72;39.88;99387.97;5000285;28;20059;-96
2022/10/08 05:12:13;;;;;;;2.83;1.20;;;;;;;18.57;39.92;99219.09;4733264;23;20103;-96
2022/10/08 05:42:10;;;;;;;3.50;1.08;;;;;;;18.60;39.99;99215.03;5277262;23;20054;-96
2022/10/08 05:44:36;;;;;;;4.93;1.27;;;;;;;18.64;39.87;99212.59;4997269;28;20045;-96
2022/10/08 05:47:03;;;;;;;3.97;1.15;;;;;;;18.58;39.80;99200.97;4943677;28;20026;-96
2022/10/08 05:49:30;;;;;;;3.95;1.27;;;;;;;18.55;39.89;99205.00;4979070;28;20034;-96
2022/10/08 05:52:02;;;;;;;5.00;1.23;;;;;;;18.54;39.65;99203.41;5007212;28;20501;-96
2022/10/08 07:29:15;;;;;;;2.60;0.93;;;;;;;18.60;40.50;99150.09;4990665;28;20050;-96
2022/10/08 07:32:01;;;;;;;1.67;0.98;;;;;;;18.80;40.26;99173.66;4974211;28;20022;-96
2022/10/08 07:34:49;;;;;;;2.38;0.90;;;;;;;18.65;40.32;99154.69;4958608;28;20023;-96
2022/10/08 07:37:18;;;;;;;3.78;1.08;;;;;;;18.62;40.41;99152.53;4957482;28;20027;-96
2022/10/08 07:39:50;;;;;;;2.97;1.10;;;;;;;18.42;40.34;99132.53;4978663;28;20052;-96
2022/10/08 07:42:17;;;;;;;2.90;0.90;;;;;;;18.42;40.28;99118.16;4972099;28;20030;-96
2022/10/08 07:57:40;;;;;;;3.22;0.95;;;;;;;18.56;40.44;99124.69;1453715;26;20058;-96
2022/10/08 08:46:43;;;;;;;2.05;0.90;;;;;;;18.81;40.54;99126.53;4324733;23;20110;-96
2022/10/08 08:52:43;;;;;;;5.15;1.20;;;;;;;18.58;40.50;99085.44;4997066;28;20209;-96
2022/10/08 08:55:16;;;;;;;2.90;0.95;;;;;;;18.76;40.49;99115.72;4961543;28;20054;-96
2022/10/08 08:57:59;;;;;;;4.28;1.05;;;;;;;18.82;40.51;99117.38;4961498;28;20058;-96
2022/10/08 09:00:35;;;;;;;4.00;1.10;;;;;;;18.54;40.65;99084.38;4948003;28;20046;-96
2022/10/08 09:03:18;;;;;;;2.45;0.95;;;;;;;18.74;40.56;99107.06;4961955;28;20057;-96
2022/10/08 09:05:48;;;;;;;3.33;0.95;;;;;;;18.51;40.58;99067.88;4979285;28;20054;-96
2022/10/08 09:08:34;;;;;;;3.28;0.90;;;;;;;18.64;40.69;99088.13;4960315;28;20034;-96
2022/10/08 09:11:03;;;;;;;3.58;1.40;;;;;;;18.52;40.62;99054.06;4961945;28;20463;-95
2022/10/08 09:13:46;;;;;;;3.70;1.20;;;;;;;18.54;40.64;99051.91;4945903;28;20036;-96
2022/10/08 09:16:13;;;;;;;4.43;1.00;;;;;;;18.55;40.54;99064.31;4963771;28;20113;-95
2022/10/08 09:19:02;;;;;;;3.55;1.10;;;;;;;18.62;40.75;99042.41;4961206;28;20022;-96
2022/10/08 09:21:33;;;;;;;4.00;1.00;;;;;;;18.80;40.72;99081.63;4978997;28;20030;-94
2022/10/08 09:24:00;;;;;;;2.85;0.90;;;;;;;18.77;40.72;99071.34;4965144;28;20085;-96
2022/10/08 09:26:29;;;;;;;3.33;1.00;;;;;;;18.71;40.82;99072.41;4982516;28;20033;-96
2022/10/08 09:28:56;;;;;;;3.65;1.10;;;;;;;18.67;40.74;99066.75;4964158;28;20032;-96
2022/10/08 09:31:25;;;;;;;4.32;1.05;;;;;;;18.70;40.64;99068.09;4961921;28;20122;-96
2022/10/08 09:34:05;;;;;;;5.70;1.42;;;;;;;18.76;40.60;99075.13;4976232;28;20306;-96
2022/10/08 09:36:40;;;;;;;2.83;1.15;;;;;;;18.73;40.58;99060.25;4983114;28;20490;-96
2022/10/08 09:39:26;;;;;;;2.03;0.90;;;;;;;18.74;40.60;99067.28;4979352;28;20019;-96
2022/10/08 09:42:08;;;;;;;1.33;0.77;;;;;;;18.79;40.84;99069.16;4977837;28;20026;-96
2022/10/08 09:44:50;;;;;;;4.55;1.00;;;;;;;18.79;40.78;99092.72;4994764;28;20029;-96
2022/10/08 09:47:20;;;;;;;4.95;1.15;;;;;;;18.51;40.57;99070.56;4960759;28;20042;-96
2022/10/08 09:50:00;;;;;;;2.88;1.15;;;;;;;18.67;40.70;99074.06;4977059;28;20022;-96
2022/10/08 09:52:29;;;;;;;3.58;1.10;;;;;;;18.53;40.67;99080.03;4989019;28;20065;-96
2022/10/08 09:55:08;;;;;;;4.50;0.95;;;;;;;18.64;40.38;99082.72;4967530;28;20022;-96
2022/10/08 09:57:35;;;;;;;2.33;1.02;;;;;;;18.62;40.50;99095.72;4960687;28;20022;-96
2022/10/08 10:00:03;;;;;;;2.92;1.30;;;;;;;18.77;40.54;99098.41;4960404;28;20240;-96
2022/10/08 10:02:35;;;;;;;3.28;1.20;;;;;;;18.61;40.46;99077.84;4976365;28;20095;-96
2022/10/08 10:05:06;;;;;;;3.13;1.10;;;;;;;18.74;40.44;99101.66;4976212;28;20034;-96
2022/10/08 10:07:42;;;;;;;2.95;1.15;;;;;;;18.74;40.54;99107.06;4975867;28;20031;-96
2022/10/08 10:10:14;;;;;;;2.22;0.80;;;;;;;18.56;40.27;99098.44;4976272;28;20041;-96
2022/10/08 10:12:40;;;;;;;3.75;1.20;;;;;;;18.64;40.43;99082.72;4944843;28;20525;-95
2022/10/08 10:15:17;;;;;;;2.65;1.00;;;;;;;18.82;40.41;99117.38;4977363;28;20022;-96
2022/10/08 10:17:49;;;;;;;3.05;1.05;;;;;;;18.67;40.54;99103.81;4975893;28;20058;-96
2022/10/08 10:20:28;;;;;;;1.77;0.70;;;;;;;18.82;40.47;99122.78;4960398;28;20033;-96
2022/10/08 10:23:17;;;;;;;2.65;1.08;;;;;;;18.65;40.39;99100.59;4959444;28;20034;-96
2022/10/08 10:25:43;;;;;;;2.33;0.98;;;;;;;18.82;40.33;99119.25;4975746;28;20030;-96
2022/10/08 10:28:33;;;;;;;2.30;0.90;;;;;;;18.67;40.28;99106.53;4993154;28;20022;-96
2022/10/08 10:31:05;;;;;;;2.85;1.20;;;;;;;18.56;40.32;99090.31;4916221;28;20038;-96
2022/10/08 10:33:33;;;;;;;2.15;1.00;;;;;;;18.72;40.25;99120.06;4976401;28;20054;-96
2022/10/08 10:36:01;;;;;;;2.13;0.85;;;;;;;18.78;40.14;99124.38;4959829;28;20023;-96
2022/10/08 10:38:31;;;;;;;3.40;1.00;;;;;;;18.77;40.28;99114.63;4975564;28;20022;-96
2022/10/08 10:41:20;;;;;;;2.22;0.93;;;;;;;18.71;40.18;99115.72;4959629;28;20023;-96
2022/10/08 10:44:19;;;;;;;3.47;1.35;;;;;;;18.71;40.14;99121.13;4960128;28;20022;-96
2022/10/08 10:46:48;;;;;;;2.38;1.10;;;;;;;18.70;40.16;99111.41;4908024;28;20566;-96
2022/10/08 10:49:20;;;;;;;2.45;0.93;;;;;;;18.76;40.18;99110.28;4959347;28;20042;-96
2022/10/08 10:52:16;;;;;;;2.50;0.90;;;;;;;18.85;40.15;99116.00;4958951;28;20073;-96
2022/10/08 10:55:07;;;;;;;3.33;1.25;;;;;;;18.68;40.18;99084.63;4992642;28;20049;-96
2022/10/08 10:57:45;;;;;;;3.38;0.80;;;;;;;18.83;40.22;99121.69;4946041;28;20533;-96
2022/10/08 11:00:17;;;;;;;2.08;1.00;;;;;;;18.84;40.16;99107.06;4974873;28;20042;-96
2022/10/08 11:03:06;;;;;;;1.42;0.77;;;;;;;18.72;40.25;99106.53;4975113;28;20490;-96
2022/10/08 11:05:41;;;;;;;1.40;0.82;;;;;;;18.73;40.34;99092.72;4945184;28;20109;-96
2022/10/08 11:08:14;;;;;;;2.50;0.80;;;;;;;18.87;40.21;99114.66;4944930;28;20019;-96
2022/10/08 11:10:51;;;;;;;4.63;0.90;;;;;;;18.73;40.17;99089.19;4976838;28;20046;-96
2022/10/08 11:13:42;;;;;;;3.88;0.93;;;;;;;18.85;40.18;99106.00;4975394;28;20474;-96
2022/10/08 11:16:10;;;;;;;1.50;0.70;;;;;;;18.84;40.81;99106.28;4960298;28;20085;-96
2022/10/08 11:18:58;;;;;;;2.20;0.80;;;;;;;18.67;40.43;99080.28;4974707;28;20177;-96
2022/10/08 11:21:51;;;;;;;1.88;0.70;;;;;;;18.85;40.49;99108.72;4947307;28;20030;-96
2022/10/08 11:24:35;;;;;;;1.45;0.80;;;;;;;18.87;40.31;99103.84;4963528;28;20058;-96
2022/10/08 11:27:16;;;;;;;1.52;0.75;;;;;;;18.74;40.34;99090.81;4977891;28;20041;-96
2022/10/08 11:29:56;;;;;;;2.13;0.95;;;;;;;18.86;40.54;99113.03;4961198;28;20058;-96
2022/10/08 11:32:21;;;;;;;1.10;0.63;;;;;;;18.71;40.43;99084.06;4962620;28;20121;-96
2022/10/08 11:34:57;;;;;;;1.45;0.65;;;;;;;18.86;40.60;99107.59;4946342;28;20035;-96
2022/10/08 11:37:35;;;;;;;2.00;0.80;;;;;;;18.86;40.66;99102.19;4963057;28;20065;-96
2022/10/08 11:40:34;;;;;;;0.95;0.57;;;;;;;18.87;40.57;99098.41;4979679;28;20026;-96
2022/10/08 11:43:07;;;;;;;0.82;0.63;;;;;;;18.77;40.58;99093.78;4962648;28;20467;-96
2022/10/08 11:45:40;;;;;;;2.00;0.88;;;;;;;18.86;40.65;99102.19;4962465;28;20074;-96
2022/10/08 11:48:29;;;;;;;2.28;0.95;;;;;;;18.86;40.64;99094.06;4962298;28;20030;-96
2022/10/08 11:51:19;;;;;;;1.20;0.60;;;;;;;18.89;40.44;99100.84;4978277;28;20044;-96
2022/10/08 11:54:11;;;;;;;1.52;0.60;;;;;;;18.87;40.63;99098.41;4980086;28;20518;-96
2022/10/08 11:56:39;;;;;;;1.77;0.73;;;;;;;18.83;40.51;99085.69;4995573;28;20022;-95
2022/10/08 11:59:28;;;;;;;2.88;0.60;;;;;;;18.73;40.61;99075.66;4961891;28;20088;-96
2022/10/08 12:01:59;;;;;;;3.05;0.70;;;;;;;18.68;40.56;99059.44;4948146;28;20118;-96
2022/10/08 12:04:35;;;;;;;1.80;0.75;;;;;;;18.75;40.64;99077.03;4946294;28;20031;-96
2022/10/08 12:07:25;;;;;;;1.13;0.60;;;;;;;18.67;40.61;99061.34;4961607;28;20400;-96
2022/10/08 12:10:04;;;;;;;1.45;0.60;;;;;;;18.90;40.49;99105.16;4948329;28;20022;-96
2022/10/08 12:12:50;;;;;;;2.45;0.70;;;;;;;18.90;40.61;99107.88;4982152;28;20033;-96
2022/10/08 12:15:32;;;;;;;1.88;0.70;;;;;;;18.88;40.62;99100.03;4964433;28;20122;-96
2022/10/08 12:18:09;;;;;;;2.58;0.82;;;;;;;18.80;40.48;99086.19;4996870;28;20045;-96
2022/10/08 12:20:36;;;;;;;1.10;0.57;;;;;;;18.77;40.70;99091.09;4964819;28;20117;-96
2022/10/08 12:23:30;;;;;;;1.25;0.73;;;;;;;18.76;40.50;99085.94;4961632;28;20085;-96
2022/10/08 12:25:59;;;;;;;2.97;0.80;;;;;;;18.91;40.40;99102.19;4963618;28;20046;-96
2022/10/08 12:28:36;;;;;;;0.95;0.60;;;;;;;18.91;40.56;99106.78;4978223;28;20276;-96
2022/10/08 12:31:38;;;;;;;0.38;0.32;;;;;;;18.92;40.43;99103.81;4965803;28;20086;-96
2022/10/08 12:34:18;;;;;;;2.35;0.88;;;;;;;18.79;40.58;99085.41;4966298;28;20023;-96
2022/10/08 12:36:54;;;;;;;1.23;0.50;;;;;;;18.53;40.73;99061.09;4969686;28;20054;-96
2022/10/08 12:39:28;;;;;;;2.03;0.80;;;;;;;18.91;40.57;99104.09;4961650;28;20096;-96
2022/10/08 12:42:27;;;;;;;1.48;0.80;;;;;;;18.85;40.57;99106.00;4962635;28;20026;-96
2022/10/08 12:45:04;;;;;;;0.95;0.70;;;;;;;18.92;40.47;99111.94;4966998;28;20034;-96
2022/10/08 12:48:20;;;;;;;1.08;0.50;;;;;;;18.76;40.57;99107.59;4965872;28;20050;-96
2022/10/08 12:50:53;;;;;;;1.17;0.75;;;;;;;18.92;40.27;99117.34;4965933;28;20045;-96
2022/10/08 12:53:19;;;;;;;1.48;0.60;;;;;;;18.83;40.38;99102.72;4961330;28;20026;-96
2022/10/08 12:56:08;;;;;;;1.95;0.70;;;;;;;18.60;40.43;99065.41;4945539;28;20417;-96
2022/10/08 12:58:35;;;;;;;2.45;0.60;;;;;;;18.83;40.28;99100.03;4963902;28;20037;-96
2022/10/08 13:01:02;;;;;;;1.58;0.57;;;;;;;18.76;40.36;99092.19;4945228;28;20157;-96
2022/10/08 13:03:27;;;;;;;1.42;0.63;;;;;;;18.70;40.29;99103.28;4961634;28;20041;-96
2022/10/08 13:05:56;;;;;;;0.93;0.70;;;;;;;18.90;40.22;99111.41;4945462;28;20407;-96
2022/10/08 13:08:36;;;;;;;1.42;0.73;;;;;;;18.83;40.23;99108.16;4961903;28;20037;-96
2022/10/08 13:11:10;;;;;;;0.90;0.55;;;;;;;18.77;40.07;99110.03;4960811;28;20034;-96
2022/10/08 13:13:38;;;;;;;0.52;0.50;;;;;;;18.95;40.24;99140.34;4960723;28;20034;-96
2022/10/08 13:16:06;;;;;;;0.50;0.40;;;;;;;18.74;40.28;99120.59;4976798;28;20033;-96
2022/10/08 13:18:33;;;;;;;0.85;0.45;;;;;;;18.76;40.03;99113.00;4960789;28;20486;-96
2022/10/08 13:21:03;;;;;;;0.60;0.50;;;;;;;18.79;40.17;99128.72;4960559;28;20038;-96
2022/10/08 13:23:40;;;;;;;1.55;0.52;;;;;;;18.84;39.98;99128.72;4960712;28;20026;-96
2022/10/08 13:26:44;;;;;;;2.47;0.77;;;;;;;18.97;40.06;99140.88;4961113;28;20030;-96
2022/10/08 13:29:36;;;;;;;1.70;0.63;;;;;;;18.98;40.13;99139.00;4961099;28;20034;-96
2022/10/08 13:32:16;;;;;;;2.17;0.60;;;;;;;18.97;40.13;99126.53;4956149;28;20065;-96
2022/10/08 13:34:58;;;;;;;0.93;0.60;;;;;;;18.79;40.18;99098.13;4960309;28;20030;-96
2022/10/08 13:37:36;;;;;;;0.43;0.32;;;;;;;18.95;40.18;99143.88;4945719;28;20061;-96
2022/10/08 13:40:11;;;;;;;1.73;0.68;;;;;;;18.97;40.07;99150.91;4960363;28;20038;-96
2022/10/08 13:42:47;;;;;;;0.88;0.50;;;;;;;18.87;40.17;99136.31;4976596;28;20426;-96
2022/10/08 13:45:17;;;;;;;0.63;0.50;;;;;;;18.81;40.19;99129.25;4959976;28;20042;-96
2022/10/08 13:47:43;;;;;;;1.17;0.40;;;;;;;18.91;40.32;99148.22;4944724;28;20025;-96
2022/10/08 13:50:09;;;;;;;1.48;0.60;;;;;;;18.85;40.07;99143.91;4959870;28;20038;-96
2022/10/08 13:52:34;;;;;;;0.68;0.50;;;;;;;18.93;40.24;99156.84;4944047;28;20026;-95
2022/10/08 13:55:05;;;;;;;1.30;0.55;;;;;;;18.79;39.94;99144.94;4960278;28;20069;-96
2022/10/08 13:57:31;;;;;;;1.90;0.50;;;;;;;18.89;40.11;99133.34;4944631;28;20104;-96
2022/10/08 14:00:03;;;;;;;1.35;0.57;;;;;;;18.98;40.06;99153.34;4962165;28;20078;-96
2022/10/08 14:02:29;;;;;;;1.20;0.60;;;;;;;18.83;40.08;99135.22;4976790;28;20089;-96
2022/10/08 14:04:55;;;;;;;2.40;0.65;;;;;;;18.72;40.07;99126.28;4960230;28;20125;-96
2022/10/08 14:07:26;;;;;;;0.90;0.55;;;;;;;18.90;39.95;99135.78;4961137;28;20046;-96
2022/10/08 14:09:52;;;;;;;0.65;0.50;;;;;;;18.81;40.10;99120.31;4959982;28;20505;-96
2022/10/08 14:12:20;;;;;;;0.95;0.50;;;;;;;18.93;39.94;99156.06;4959758;28;20026;-96
2022/10/08 14:14:46;;;;;;;1.33;0.52;;;;;;;18.92;40.06;99160.66;4960065;28;20026;-96
2022/10/08 14:17:12;;;;;;;0.80;0.50;;;;;;;18.74;39.92;99142.25;4943997;28;20030;-96
2022/10/08 14:19:37;;;;;;;1.20;0.73;;;;;;;18.78;40.04;99140.59;4959715;28;20077;-96
2022/10/08 14:22:03;;;;;;;1.13;0.50;;;;;;;18.94;39.96;99154.97;4945718;28;20030;-96
2022/10/08 14:24:29;;;;;;;1.17;0.50;;;;;;;18.83;40.00;99142.53;4943940;28;20105;-96
2022/10/08 14:26:54;;;;;;;1.58;0.60;;;;;;;18.88;39.89;99151.44;4943571;28;20367;-96
2022/10/08 14:29:20;;;;;;;2.00;0.70;;;;;;;18.76;40.04;99135.50;4943560;28;20034;-96
2022/10/08 14:31:46;;;;;;;0.80;0.50;;;;;;;18.82;39.92;99136.31;4943881;28;20034;-95
2022/10/08 14:34:11;;;;;;;0.80;0.55;;;;;;;18.91;39.89;99152.81;4943529;28;20030;-96
2022/10/08 14:36:39;;;;;;;0.52;0.50;;;;;;;18.93;40.03;99161.47;4943427;28;20026;-96
2022/10/08 14:39:05;;;;;;;0.57;0.50;;;;;;;18.88;39.99;99159.56;4959391;28;20030;-96
2022/10/08 14:41:31;;;;;;;1.52;0.60;;;;;;;18.93;40.00;99178.50;4943015;28;20077;-96
2022/10/08 14:43:57;;;;;;;1.30;0.30;;;;;;;18.76;39.68;99145.47;4959174;28;20058;-96
2022/10/08 14:46:23;;;;;;;0.95;0.47;;;;;;;18.95;39.77;99179.06;4942712;28;20062;-96
2022/10/08 14:48:48;;;;;;;1.92;0.50;;;;;;;18.88;39.95;99154.16;4959142;28;20027;-95
2022/10/08 14:51:14;;;;;;;2.55;0.60;;;;;;;18.88;39.78;99143.31;4959503;28;20022;-96
2022/10/08 14:53:40;;;;;;;0.60;0.40;;;;;;;18.72;39.69;99130.88;4958556;28;20092;-96
2022/10/08 14:56:06;;;;;;;1.23;0.50;;;;;;;18.94;39.65;99171.22;4977876;28;20102;-96
2022/10/08 14:58:32;;;;;;;1.88;0.60;;;;;;;18.85;39.73;99160.13;4947279;28;20054;-96
2022/10/08 15:00:57;;;;;;;0.70;0.50;;;;;;;18.98;39.66;99179.63;4962961;28;20030;-96
2022/10/08 15:03:23;;;;;;;0.45;0.43;;;;;;;18.78;39.66;99159.53;4947490;28;20027;-96
2022/10/08 15:05:52;;;;;;;1.38;0.80;;;;;;;18.99;39.73;99181.22;4947224;28;20031;-96
2022/10/08 15:08:19;;;;;;;1.05;0.57;;;;;;;18.92;39.72;99178.78;4947357;28;20042;-96
2022/10/08 15:10:46;;;;;;;1.50;0.60;;;;;;;18.80;39.65;99162.81;4963756;28;20069;-96
2022/10/08 15:13:12;;;;;;;1.60;0.60;;;;;;;18.84;39.65;99177.44;4963585;28;20475;-96
2022/10/08 15:15:39;;;;;;;0.68;0.40;;;;;;;18.90;39.61;99178.25;4947309;28;20471;-96
2022/10/08 15:18:05;;;;;;;0.82;0.52;;;;;;;18.90;39.63;99183.66;4947518;28;20048;-96
2022/10/08 15:20:33;;;;;;;1.00;0.50;;;;;;;18.79;39.76;99171.22;4947298;28;20462;-96
2022/10/08 15:22:59;;;;;;;1.48;0.50;;;;;;;18.95;39.69;99200.75;4979631;28;20033;-96
2022/10/08 15:25:26;;;;;;;1.45;0.52;;;;;;;18.88;39.59;99191.25;4963698;28;20029;-96
2022/10/08 15:27:52;;;;;;;0.95;0.40;;;;;;;18.87;39.69;99187.75;4963885;28;20479;-96
2022/10/08 15:30:18;;;;;;;0.95;0.65;;;;;;;18.80;39.68;99184.47;4963261;28;20096;-96
2022/10/08 15:32:44;;;;;;;1.08;0.55;;;;;;;18.86;39.71;99198.84;4963423;28;20026;-96
2022/10/08 15:35:10;;;;;;;1.15;0.40;;;;;;;18.99;39.78;99219.13;4947274;28;20121;-96
2022/10/08 15:37:39;;;;;;;2.80;0.60;;;;;;;18.85;39.49;99208.03;4962960;28;20026;-96
2022/10/08 15:40:05;;;;;;;1.48;0.50;;;;;;;18.97;39.73;99224.00;4947949;28;20462;-96
2022/10/08 15:42:32;;;;;;;1.67;0.60;;;;;;;18.85;39.70;99208.88;4978918;28;20385;-96
2022/10/08 15:44:58;;;;;;;1.17;0.60;;;;;;;18.79;39.69;99204.50;4962601;28;20057;-96
2022/10/08 15:47:24;;;;;;;1.70;0.52;;;;;;;18.73;39.63;99205.56;4959276;28;20375;-96
2022/10/08 15:49:49;;;;;;;0.57;0.40;;;;;;;18.89;39.58;99220.75;4975259;28;20498;-96
2022/10/08 15:52:19;;;;;;;0.55;0.50;;;;;;;18.85;39.35;99222.41;4958936;28;20486;-96
2022/10/08 15:54:45;;;;;;;0.50;0.50;;;;;;;18.84;39.42;99226.16;4959077;28;20027;-96
2022/10/08 15:57:12;;;;;;;1.08;0.60;;;;;;;18.74;39.57;99212.59;4942915;28;20038;-96
2022/10/08 15:59:37;;;;;;;0.63;0.50;;;;;;;18.79;39.50;99228.03;4958862;28;20033;-96
2022/10/08 16:02:03;;;;;;;2.08;0.47;;;;;;;18.85;39.70;99241.34;4958744;28;20399;-96
2022/10/08 16:04:29;;;;;;;0.75;0.50;;;;;;;18.85;39.55;99233.22;4958957;28;20388;-96
2022/10/08 16:06:55;;;;;;;1.77;0.50;;;;;;;18.80;39.48;99230.50;4958557;28;20034;-96
2022/10/08 16:09:21;;;;;;;0.88;0.50;;;;;;;18.79;39.50;99228.84;4959093;28;20033;-96
2022/10/08 16:11:46;;;;;;;1.67;0.43;;;;;;;18.83;39.56;99242.69;4958843;28;20038;-96
2022/10/08 16:14:17;;;;;;;0.80;0.40;;;;;;;18.78;39.31;99243.44;4958809;28;20463;-96
2022/10/08 16:16:43;;;;;;;0.55;0.40;;;;;;;18.81;39.64;99256.44;4959180;28;20360;-96
2022/10/08 16:19:19;;;;;;;0.88;0.40;;;;;;;18.84;39.54;99261.38;4958576;28;20058;-96
2022/10/08 16:21:48;;;;;;;0.75;0.70;;;;;;;18.75;39.58;99235.91;4959126;28;20065;-96
2022/10/08 16:24:14;;;;;;;0.90;0.60;;;;;;;18.76;39.59;99248.31;4975138;28;20026;-96
2022/10/08 16:26:39;;;;;;;0.63;0.40;;;;;;;18.76;39.47;99237.50;4958748;28;20498;-96
2022/10/08 16:29:07;;;;;;;1.10;0.50;;;;;;;18.72;39.44;99236.44;4975162;28;20074;-95
2022/10/08 16:31:33;;;;;;;1.10;0.50;;;;;;;18.73;39.38;99238.88;4974825;28;20109;-96
2022/10/08 16:34:20;;;;;;;1.17;0.60;;;;;;;18.87;39.40;99268.94;4974526;28;20034;-96
2022/10/08 16:36:47;;;;;;;0.63;0.50;;;;;;;18.78;39.21;99246.16;4975275;28;20041;-96
2022/10/08 16:39:13;;;;;;;0.93;0.40;;;;;;;18.69;39.35;99232.34;4942615;28;20069;-95
2022/10/08 16:41:40;;;;;;;0.85;0.50;;;;;;;18.78;39.47;99251.56;4942362;28;20054;-96
2022/10/08 16:44:08;;;;;;;1.40;0.65;;;;;;;18.89;39.32;99269.50;4958292;28;20538;-96
2022/10/08 16:46:35;;;;;;;2.47;0.70;;;;;;;18.72;39.35;99255.38;4958299;28;20054;-96
2022/10/08 16:49:07;;;;;;;0.90;0.43;;;;;;;18.92;39.30;99277.06;4942405;28;20027;-96
2022/10/08 16:51:36;;;;;;;0.60;0.40;;;;;;;18.78;39.33;99259.69;4958812;28;20030;-96
2022/10/08 16:54:02;;;;;;;0.68;0.38;;;;;;;18.78;39.75;99265.09;4957851;28;20042;-96
2022/10/08 16:56:29;;;;;;;1.98;0.70;;;;;;;18.77;39.26;99271.63;4957974;28;20050;-96
2022/10/08 16:58:56;;;;;;;2.47;0.60;;;;;;;18.89;39.46;99299.25;4942157;28;20241;-95
2022/10/08 17:01:22;;;;;;;0.45;0.40;;;;;;;18.75;39.25;99276.50;4958003;28;20054;-96
2022/10/08 17:03:48;;;;;;;0.98;0.40;;;;;;;18.77;39.19;99274.31;4974023;28;20065;-95
2022/10/08 17:06:14;;;;;;;1.00;0.70;;;;;;;18.70;39.38;99271.06;4958046;28;20388;-96
2022/10/08 17:08:40;;;;;;;1.40;0.65;;;;;;;18.80;39.27;99291.91;4958494;28;20063;-96
2022/10/08 17:11:07;;;;;;;0.68;0.55;;;;;;;18.63;39.29;99260.50;4941759;28;20027;-96
2022/10/08 17:13:33;;;;;;;1.48;0.50;;;;;;;18.76;39.23;99278.94;4957859;28;20030;-96
2022/10/08 17:16:00;;;;;;;1.27;0.40;;;;;;;18.79;39.20;99277.56;4958427;28;20086;-95
2022/10/08 17:18:26;;;;;;;0.77;0.50;;;;;;;18.82;39.19;99285.19;4973125;28;20026;-96
2022/10/08 17:20:56;;;;;;;0.93;0.60;;;;;;;18.67;39.01;99274.31;4973762;28;20030;-96
2022/10/08 17:23:22;;;;;;;0.65;0.45;;;;;;;18.78;39.07;99286.75;4957655;28;20031;-95
2022/10/08 17:25:56;;;;;;;0.60;0.50;;;;;;;18.76;39.14;99289.75;4957575;28;20031;-95
2022/10/08 17:28:25;;;;;;;0.77;0.55;;;;;;;18.76;39.28;99294.34;4974033;28;20025;-95
2022/10/08 17:30:50;;;;;;;0.57;0.43;;;;;;;18.76;39.22;99297.03;4957756;28;20058;-96
2022/10/08 17:33:16;;;;;;;0.98;0.60;;;;;;;18.81;39.21;99310.59;4957417;28;20031;-95
2022/10/08 17:35:42;;;;;;;0.50;0.50;;;;;;;18.77;39.18;99304.09;4957572;28;20431;-96
2022/10/08 17:38:07;;;;;;;1.13;0.50;;;;;;;18.65;39.01;99295.41;4973014;28;20102;-96
2022/10/08 17:40:33;;;;;;;1.02;0.50;;;;;;;18.74;39.23;99301.91;4973493;28;20468;-96
2022/10/08 17:42:59;;;;;;;1.05;0.60;;;;;;;18.77;39.03;99309.50;4957709;28;20031;-95
2022/10/08 17:45:25;;;;;;;1.55;0.50;;;;;;;18.63;39.00;99297.59;4974422;28;20035;-95
2022/10/08 17:47:50;;;;;;;0.90;0.57;;;;;;;18.72;39.09;99302.19;4960880;28;20084;-96
2022/10/08 17:50:16;;;;;;;0.47;0.40;;;;;;;18.65;39.10;99303.53;4976355;28;20030;-96
2022/10/08 17:52:42;;;;;;;1.35;0.65;;;;;;;18.82;38.99;99327.66;4993829;28;20475;-96
2022/10/08 17:55:07;;;;;;;2.05;0.60;;;;;;;18.73;39.04;99308.41;4994066;28;20042;-95
2022/10/08 17:57:33;;;;;;;1.15;0.47;;;;;;;18.79;39.00;99329.00;4993801;28;20037;-96
2022/10/08 17:59:58;;;;;;;0.52;0.45;;;;;;;18.80;39.00;99325.22;4993795;28;20490;-96
2022/10/08 18:02:30;;;;;;;1.65;0.50;;;;;;;18.81;38.96;99336.84;4993722;28;20117;-96
2022/10/08 18:04:55;;;;;;;0.52;0.40;;;;;;;18.80;38.98;99329.78;4993945;28;20414;-96
2022/10/08 18:07:21;;;;;;;0.82;0.50;;;;;;;18.73;38.98;99319.22;4993914;28;20109;-96
2022/10/08 18:09:48;;;;;;;1.08;0.50;;;;;;;18.76;38.92;99334.94;4993758;28;20026;-96
2022/10/08 18:12:14;;;;;;;2.78;0.50;;;;;;;18.78;38.94;99338.19;4976305;28;20038;-96
2022/10/08 18:14:40;;;;;;;0.95;0.50;;;;;;;18.77;38.71;99342.78;4976482;28;20422;-96
2022/10/08 18:17:08;;;;;;;0.57;0.32;;;;;;;18.78;38.83;99340.88;4993490;28;20548;-96
2022/10/08 18:19:34;;;;;;;1.33;0.50;;;;;;;18.77;38.87;99336.56;4993361;28;20030;-96
2022/10/08 18:21:59;;;;;;;0.98;0.40;;;;;;;18.76;38.93;99338.47;4993462;28;20034;-95
2022/10/08 18:24:28;;;;;;;1.08;0.60;;;;;;;18.75;38.82;99350.38;4993428;28;20109;-96
2022/10/08 18:26:54;;;;;;;1.02;0.52;;;;;;;18.73;38.91;99351.69;4976539;28;20022;-95
2022/10/08 18:32:48;;;;;;;0.75;0.60;;;;;;;18.74;39.15;99356.03;4937245;29;20675;-96
2022/10/08 18:35:13;;;;;;;1.35;0.60;;;;;;;18.56;38.55;99328.41;4905709;29;20040;-96
2022/10/08 18:37:39;;;;;;;0.75;0.50;;;;;;;18.73;38.97;99354.41;4905552;29;20028;-95
2022/10/08 18:40:05;;;;;;;0.90;0.50;;;;;;;18.71;38.91;99356.56;4937123;29;20067;-95
2022/10/08 18:42:31;;;;;;;1.08;0.60;;;;;;;18.73;38.87;99370.66;4937216;29;20036;-96
2022/10/08 18:44:57;;;;;;;0.88;0.60;;;;;;;18.49;38.72;99335.13;4936848;29;20055;-96
2022/10/08 18:47:22;;;;;;;0.85;0.63;;;;;;;18.60;38.76;99352.22;4889884;29;20051;-95
2022/10/08 18:49:48;;;;;;;1.73;0.60;;;;;;;18.62;38.80;99358.19;4905364;29;20032;-96
2022/10/08 18:52:14;;;;;;;2.13;0.60;;;;;;;18.42;38.70;99330.00;4889508;29;20039;-95
2022/10/08 18:54:39;;;;;;;1.25;0.60;;;;;;;18.70;38.71;99373.91;4920958;29;20111;-95
2022/10/08 18:57:05;;;;;;;0.77;0.47;;;;;;;18.53;38.65;99357.88;4921310;29;20127;-95
2022/10/08 18:59:31;;;;;;;0.98;0.60;;;;;;;18.60;38.63;99357.63;4921010;29;20024;-96
2022/10/08 19:01:57;;;;;;;1.15;0.60;;;;;;;18.64;38.60;99374.97;4905235;29;20448;-95
2022/10/08 19:04:22;;;;;;;1.10;0.60;;;;;;;18.54;38.62;99360.31;4979539;28;20482;-95
2022/10/08 19:06:49;;;;;;;1.10;0.55;;;;;;;18.67;38.85;99385.25;4963370;28;20038;-95
2022/10/08 19:09:15;;;;;;;0.55;0.45;;;;;;;18.50;38.65;99358.41;4963360;28;20077;-95
2022/10/08 19:11:45;;;;;;;1.58;0.55;;;;;;;18.51;38.54;99365.47;4946944;28;20030;-96
2022/10/08 19:14:12;;;;;;;0.40;0.40;;;;;;;18.41;38.67;99343.78;4963979;28;20061;-95
2022/10/08 19:16:41;;;;;;;1.63;0.70;;;;;;;18.47;38.66;99362.47;4979508;28;20029;-95
2022/10/08 19:19:12;;;;;;;0.90;0.50;;;;;;;18.53;38.49;99364.09;4979335;28;20029;-95
2022/10/08 19:21:38;;;;;;;1.48;0.63;;;;;;;18.48;38.57;99361.38;4963538;28;20019;-95
2022/10/08 19:24:05;;;;;;;1.02;0.57;;;;;;;18.44;38.77;99357.59;4996298;28;20032;-95
2022/10/08 19:26:31;;;;;;;1.67;0.60;;;;;;;18.51;38.64;99368.16;4946605;28;20109;-95
2022/10/08 19:28:56;;;;;;;0.57;0.40;;;;;;;18.54;38.55;99381.97;4962671;28;20156;-95
2022/10/08 19:31:28;;;;;;;0.90;0.40;;;;;;;18.49;38.36;99384.66;4962370;28;20479;-95
2022/10/08 19:33:58;;;;;;;1.52;0.50;;;;;;;18.57;38.43;99383.31;4963076;28;20068;-95
2022/10/08 19:36:25;;;;;;;0.93;0.68;;;;;;;18.68;38.02;99379.59;4978460;28;20106;-95
2022/10/08 19:38:55;;;;;;;0.77;0.50;;;;;;;18.86;37.77;99356.66;4962479;28;20046;-95
2022/10/08 19:41:22;;;;;;;1.27;0.60;;;;;;;19.31;37.39;99390.28;4977952;28;20026;-95
2022/10/08 19:43:48;;;;;;;0.80;0.50;;;;;;;19.58;36.82;99397.34;4962717;28;20041;-95
2022/10/08 19:46:14;;;;;;;2.17;0.50;;;;;;;19.65;36.42;99395.16;4959090;28;20105;-96
2022/10/08 19:48:40;;;;;;;0.93;0.50;;;;;;;19.91;36.23;99416.06;4943386;28;20027;-95
2022/10/08 19:51:09;;;;;;;2.38;0.60;;;;;;;19.93;36.39;99417.41;4975168;28;20105;-95
2022/10/08 19:53:37;;;;;;;0.50;0.43;;;;;;;19.63;36.52;99391.94;4979378;28;20031;-96
2022/10/08 19:56:10;;;;;;;1.30;0.70;;;;;;;19.66;36.43;99413.06;4978247;28;20058;-96
2022/10/08 19:58:40;;;;;;;1.13;0.40;;;;;;;19.44;36.60;99393.56;4962364;28;20471;-96
2022/10/08 20:01:12;;;;;;;1.10;0.60;;;;;;;19.31;36.66;99393.00;4977523;28;20022;-96
2022/10/08 20:10:32;;;;;;;4.50;0.45;;;;;;;19.30;37.52;99437.44;4930499;28;20070;-96
2022/10/08 20:13:09;;;;;;;1.35;0.52;;;;;;;19.01;37.56;99398.38;4980356;28;20030;-96